Time;durP1;ratioP1;P1;durP2;ratioP2;P2;SDS_P1;SDS_P2;PMS_P1;PMS_P2;Temp;Humidity;BMP_temperature;BMP_pressure;BME280_temperature;BME280_humidity;BME280_pressure;Samples;Min_cycle;Max_cycle;Signal;HPM_P1;HPM_P2
2024/03/07 00:01:00;;;;;;;13.63;11.45;;;256.20;2252.80;;;;;;5011576;28;20038;-70
2024/03/07 00:03:25;;;;;;;18.75;10.57;;;256.40;2252.80;;;;;;5012870;28;20029;-69
2024/03/07 00:05:51;;;;;;;11.52;8.88;;;256.40;2252.80;;;;;;5012428;28;20034;-72
2024/03/07 00:08:17;;;;;;;13.27;10.05;;;256.50;2252.80;;;;;;5009284;28;20021;-71
2024/03/07 00:10:44;;;;;;;14.20;10.15;;;256.50;2252.80;;;;;;5008852;28;20026;-69
2024/03/07 00:13:10;;;;;;;15.05;9.88;;;256.60;2252.80;;;;;;5009178;28;20025;-73
2024/03/07 00:15:36;;;;;;;14.70;10.25;;;256.70;2252.80;;;;;;5008898;28;20026;-71
2024/03/07 00:18:02;;;;;;;13.93;10.25;;;256.70;2252.80;;;;;;5009069;28;20026;-70
2024/03/07 00:20:28;;;;;;;14.30;10.32;;;256.70;2252.80;;;;;;5008649;28;20077;-69
2024/03/07 00:22:53;;;;;;;15.07;11.30;;;256.60;2252.80;;;;;;5009284;28;20499;-70
2024/03/07 00:25:19;;;;;;;15.05;9.50;;;256.60;2252.80;;;;;;5009038;28;20018;-70
2024/03/07 00:27:45;;;;;;;18.25;12.07;;;256.50;2252.80;;;;;;5008570;28;20090;-70
2024/03/07 00:30:13;;;;;;;16.63;9.52;;;256.40;2252.80;;;;;;5008750;28;20083;-70
2024/03/07 00:32:40;;;;;;;16.40;11.43;;;256.50;2252.80;;;;;;5008785;28;20028;-69
2024/03/07 00:35:08;;;;;;;22.13;13.00;;;256.40;2252.80;;;;;;5008775;28;20028;-67
2024/03/07 00:37:35;;;;;;;11.05;7.72;;;256.40;2252.80;;;;;;5008822;28;20136;-70
2024/03/07 00:40:00;;;;;;;12.43;9.45;;;256.40;2252.80;;;;;;5008836;28;20026;-70
2024/03/07 00:42:29;;;;;;;11.68;8.02;;;256.30;2252.80;;;;;;5008794;28;20087;-71
2024/03/07 00:44:55;;;;;;;15.18;8.38;;;256.30;2252.80;;;;;;5008587;28;20022;-70
2024/03/07 00:47:21;;;;;;;11.95;8.40;;;256.30;2252.80;;;;;;5008743;28;20034;-69
2024/03/07 00:49:47;;;;;;;10.80;8.35;;;256.40;2252.80;;;;;;5008444;28;20034;-69
2024/03/07 00:52:13;;;;;;;16.13;10.82;;;256.40;2252.80;;;;;;5008611;28;20030;-70
2024/03/07 00:54:39;;;;;;;13.88;9.27;;;256.40;2252.80;;;;;;5008532;28;20064;-70
2024/03/07 00:57:05;;;;;;;12.85;10.52;;;256.50;2252.80;;;;;;5008050;28;20054;-71
2024/03/07 00:59:31;;;;;;;19.55;16.63;;;256.50;2252.80;;;;;;4999586;28;20025;-70
2024/03/07 01:01:56;;;;;;;17.45;12.65;;;256.50;2252.80;;;;;;5008135;28;20105;-73
2024/03/07 01:04:22;;;;;;;23.58;15.27;;;256.50;2252.80;;;;;;5008696;28;20105;-69
2024/03/07 01:06:48;;;;;;;19.98;14.35;;;256.90;2252.80;;;;;;5008107;28;20514;-70
2024/03/07 01:09:16;;;;;;;24.85;18.95;;;256.40;2252.80;;;;;;5008436;28;20026;-71
2024/03/07 01:11:45;;;;;;;16.10;11.32;;;256.20;2252.80;;;;;;5008402;28;20411;-71
2024/03/07 01:14:11;;;;;;;15.73;11.73;;;256.20;2252.80;;;;;;5010262;28;20030;-70
2024/03/07 01:16:37;;;;;;;16.80;10.40;;;256.40;2252.80;;;;;;5012414;28;20403;-70
2024/03/07 01:19:05;;;;;;;15.05;10.02;;;256.50;2252.80;;;;;;5012136;28;20022;-70
2024/03/07 01:21:33;;;;;;;13.20;10.20;;;256.40;2252.80;;;;;;5012041;28;20029;-70
2024/03/07 01:24:00;;;;;;;14.45;10.82;;;256.30;2252.80;;;;;;5011945;28;20097;-71
2024/03/07 01:26:27;;;;;;;11.55;8.23;;;256.20;2252.80;;;;;;5011427;28;20049;-72
2024/03/07 01:28:54;;;;;;;13.13;9.27;;;256.30;2252.80;;;;;;5012236;28;20030;-70
2024/03/07 01:31:21;;;;;;;23.85;13.07;;;256.40;2252.80;;;;;;5012003;28;20412;-73
2024/03/07 01:33:47;;;;;;;41.63;23.15;;;256.50;2252.80;;;;;;5011520;28;20026;-72
2024/03/07 01:36:13;;;;;;;14.27;10.00;;;256.60;2252.80;;;;;;5011558;28;20022;-70
2024/03/07 01:38:38;;;;;;;16.30;9.60;;;256.60;2252.80;;;;;;5011796;28;20101;-71
2024/03/07 01:41:04;;;;;;;12.60;9.00;;;256.60;2252.80;;;;;;5011222;28;20029;-70
2024/03/07 01:43:31;;;;;;;14.23;9.18;;;256.60;2252.80;;;;;;5011865;28;20478;-71
2024/03/07 01:46:00;;;;;;;10.63;8.40;;;256.60;2252.80;;;;;;5011035;28;20064;-69
2024/03/07 01:48:29;;;;;;;22.58;20.33;;;256.70;2252.80;;;;;;5011634;28;20113;-70
2024/03/07 01:50:55;;;;;;;13.85;12.20;;;256.50;2252.80;;;;;;5011001;28;20113;-70
2024/03/07 01:53:22;;;;;;;9.95;7.93;;;256.70;2252.80;;;;;;5011634;28;20026;-70
2024/03/07 01:55:49;;;;;;;11.18;8.75;;;256.70;2252.80;;;;;;5011349;28;20084;-70
2024/03/07 01:58:18;;;;;;;13.63;8.75;;;256.60;2252.80;;;;;;5011177;28;20029;-69
2024/03/07 02:00:44;;;;;;;28.13;16.05;;;256.70;2252.80;;;;;;5011095;28;20464;-70
2024/03/07 02:03:10;;;;;;;25.70;15.93;;;256.70;2252.80;;;;;;5011371;28;20030;-74
2024/03/07 02:05:35;;;;;;;21.58;13.55;;;256.70;2252.80;;;;;;5010965;28;20064;-68
2024/03/07 02:08:01;;;;;;;15.50;10.25;;;256.70;2252.80;;;;;;5011521;28;20088;-72
2024/03/07 02:10:27;;;;;;;11.20;7.65;;;256.70;2252.80;;;;;;5010478;28;20028;-72
2024/03/07 02:12:53;;;;;;;18.60;11.18;;;256.70;2252.80;;;;;;5011351;28;20026;-73
2024/03/07 02:15:19;;;;;;;16.38;10.90;;;256.70;2252.80;;;;;;5010995;28;20117;-70
2024/03/07 02:17:45;;;;;;;29.38;14.60;;;256.80;2252.80;;;;;;5011077;28;20456;-71
2024/03/07 02:20:13;;;;;;;15.38;11.40;;;256.90;2252.80;;;;;;5012049;28;20029;-70
2024/03/07 02:22:39;;;;;;;16.70;12.65;;;256.90;2252.80;;;;;;5012236;28;20113;-75
2024/03/07 02:25:07;;;;;;;13.68;9.20;;;256.90;2252.80;;;;;;5010942;28;20411;-71
2024/03/07 02:27:32;;;;;;;13.77;8.63;;;256.80;2252.80;;;;;;5011649;28;20046;-70
2024/03/07 02:29:58;;;;;;;12.18;8.65;;;256.80;2252.80;;;;;;5010709;28;20490;-76
2024/03/07 02:32:25;;;;;;;10.45;7.82;;;256.70;2252.80;;;;;;5010744;28;20026;-70
2024/03/07 02:34:50;;;;;;;13.82;8.52;;;256.50;2252.80;;;;;;5010557;28;20018;-72
2024/03/07 02:37:16;;;;;;;13.18;7.95;;;256.60;2252.80;;;;;;5010773;28;20102;-70
2024/03/07 02:39:42;;;;;;;11.88;9.40;;;256.80;2252.80;;;;;;5010397;28;20502;-71
2024/03/07 02:42:08;;;;;;;12.65;9.23;;;256.90;2252.80;;;;;;5010250;28;20420;-70
2024/03/07 02:44:34;;;;;;;10.43;8.15;;;256.90;2252.80;;;;;;5010047;28;20068;-70
2024/03/07 02:47:03;;;;;;;23.48;19.15;;;256.90;2252.80;;;;;;5010473;28;20026;-70
2024/03/07 02:49:29;;;;;;;19.67;11.02;;;256.90;2252.80;;;;;;5010249;28;20531;-70
2024/03/07 02:51:56;;;;;;;14.10;9.95;;;256.90;2252.80;;;;;;5010553;28;20056;-71
2024/03/07 02:54:22;;;;;;;28.25;23.35;;;256.90;2252.80;;;;;;5010337;28;20395;-69
2024/03/07 02:56:48;;;;;;;39.35;34.28;;;256.90;2252.80;;;;;;5010248;28;20023;-72
2024/03/07 02:59:14;;;;;;;31.50;28.15;;;256.90;2252.80;;;;;;5010080;28;20448;-70
2024/03/07 03:01:39;;;;;;;20.48;18.30;;;281.60;2278.40;;;;;;5010377;28;20060;-72
2024/03/07 03:04:06;;;;;;;19.25;17.23;;;281.60;2278.40;;;;;;5009615;28;20022;-73
2024/03/07 03:06:32;;;;;;;23.38;20.33;;;256.90;2252.80;;;;;;5010676;28;20100;-72
2024/03/07 03:08:58;;;;;;;22.10;18.55;;;281.60;2278.40;;;;;;5009505;28;20464;-72
2024/03/07 03:11:25;;;;;;;19.90;14.38;;;281.60;2278.40;;;;;;5010276;28;20026;-71
2024/03/07 03:13:52;;;;;;;23.95;21.77;;;281.60;2278.40;;;;;;4997461;28;20022;-70
2024/03/07 03:16:17;;;;;;;12.77;10.50;;;281.70;2278.40;;;;;;5009594;28;20476;-70
2024/03/07 03:18:43;;;;;;;11.43;9.05;;;281.70;2278.40;;;;;;5009706;28;20080;-72
2024/03/07 03:21:09;;;;;;;15.57;9.65;;;281.60;2278.40;;;;;;5009954;28;20077;-71
2024/03/07 03:23:35;;;;;;;15.50;12.82;;;281.70;2278.40;;;;;;5009369;28;20487;-71
2024/03/07 03:26:01;;;;;;;11.90;10.57;;;281.70;2278.40;;;;;;5009607;28;20120;-72
2024/03/07 03:28:27;;;;;;;21.48;13.75;;;281.70;2278.40;;;;;;5009416;28;20172;-70
2024/03/07 03:30:53;;;;;;;15.25;12.10;;;281.70;2278.40;;;;;;5009843;28;20026;-72
2024/03/07 03:33:20;;;;;;;17.83;12.98;;;281.80;2278.40;;;;;;5009452;28;20045;-72
2024/03/07 03:35:46;;;;;;;12.80;10.65;;;281.70;2278.40;;;;;;5009356;28;20025;-73
2024/03/07 03:38:13;;;;;;;12.50;10.40;;;281.60;2278.40;;;;;;5009598;28;20499;-73
2024/03/07 03:40:39;;;;;;;15.15;11.60;;;256.90;2252.80;;;;;;5009255;28;20495;-71
2024/03/07 03:43:05;;;;;;;19.40;14.77;;;256.90;2252.80;;;;;;5009133;28;20026;-72
2024/03/07 03:45:33;;;;;;;23.50;17.70;;;256.90;2252.80;;;;;;5009585;28;20108;-72
2024/03/07 03:47:59;;;;;;;30.23;22.33;;;281.60;2278.40;;;;;;5009679;28;20053;-73
2024/03/07 03:50:25;;;;;;;29.90;21.67;;;281.70;2278.40;;;;;;5009171;28;20552;-73
2024/03/07 03:52:52;;;;;;;24.08;21.30;;;281.70;2278.40;;;;;;5009557;28;20096;-72
2024/03/07 03:55:18;;;;;;;22.50;15.00;;;281.60;2278.40;;;;;;5009449;28;20384;-72
2024/03/07 03:57:46;;;;;;;18.77;12.90;;;256.90;2252.80;;;;;;5009255;28;20033;-70
2024/03/07 04:00:13;;;;;;;17.63;12.98;;;256.90;2252.80;;;;;;5009019;28;20542;-70
2024/03/07 04:02:48;;;;;;;16.95;13.18;;;256.80;2252.80;;;;;;5009428;28;20384;-74
2024/03/07 04:05:16;;;;;;;17.63;12.05;;;256.60;2252.80;;;;;;5008723;28;20057;-70
2024/03/07 04:07:42;;;;;;;14.15;10.63;;;256.50;2252.80;;;;;;5009721;28;20030;-70
2024/03/07 04:10:09;;;;;;;14.00;10.32;;;256.50;2252.80;;;;;;5008976;28;20059;-74
2024/03/07 04:12:37;;;;;;;15.02;10.98;;;256.50;2252.80;;;;;;5009171;28;20175;-71
2024/03/07 04:15:07;;;;;;;16.05;9.60;;;256.60;2252.80;;;;;;5008574;28;20050;-74
2024/03/07 04:17:37;;;;;;;11.88;9.88;;;256.70;2252.80;;;;;;5009131;28;20491;-71
2024/03/07 04:20:05;;;;;;;19.20;11.05;;;256.70;2252.80;;;;;;5008834;28;20486;-73
2024/03/07 04:22:32;;;;;;;13.40;9.98;;;256.80;2252.80;;;;;;5009024;28;20088;-69
2024/03/07 04:24:58;;;;;;;13.90;9.25;;;256.70;2252.80;;;;;;5008292;28;20060;-72
2024/03/07 04:27:25;;;;;;;12.13;9.43;;;256.90;2252.80;;;;;;5008928;28;20049;-71
2024/03/07 04:29:52;;;;;;;13.55;10.10;;;256.90;2252.80;;;;;;4990947;28;20387;-73
2024/03/07 04:32:18;;;;;;;14.80;12.45;;;256.80;2252.80;;;;;;5009213;28;20348;-72
2024/03/07 04:34:44;;;;;;;17.50;13.27;;;256.70;2252.80;;;;;;5009129;28;20097;-74
2024/03/07 04:37:11;;;;;;;18.52;14.27;;;256.90;2252.80;;;;;;5009484;28;20040;-71
2024/03/07 04:39:40;;;;;;;20.90;18.58;;;256.90;2252.80;;;;;;5008456;28;20101;-72
2024/03/07 04:42:07;;;;;;;21.67;17.27;;;256.90;2252.80;;;;;;5008693;28;20022;-72
2024/03/07 04:44:38;;;;;;;21.05;16.92;;;256.90;2252.80;;;;;;5008511;28;20022;-70
2024/03/07 04:47:05;;;;;;;19.90;14.77;;;256.80;2252.80;;;;;;5008830;28;20475;-70
2024/03/07 04:49:32;;;;;;;17.85;12.60;;;256.90;2252.80;;;;;;5011373;28;20158;-72
2024/03/07 04:52:00;;;;;;;16.23;12.85;;;256.70;2252.80;;;;;;5012980;28;20041;-71
2024/03/07 04:54:28;;;;;;;17.15;12.13;;;256.80;2252.80;;;;;;5012595;28;20030;-73
2024/03/07 04:56:54;;;;;;;14.43;10.35;;;256.80;2252.80;;;;;;5012354;28;20037;-73
2024/03/07 04:59:21;;;;;;;15.27;11.52;;;256.50;2252.80;;;;;;5012594;28;20018;-70
2024/03/07 05:01:48;;;;;;;14.20;10.98;;;256.50;2252.80;;;;;;5012399;28;20021;-71
2024/03/07 05:04:15;;;;;;;14.43;10.60;;;256.50;2252.80;;;;;;5011715;28;20112;-71
2024/03/07 05:06:43;;;;;;;17.48;10.93;;;256.50;2252.80;;;;;;5011724;28;20503;-70
2024/03/07 05:09:13;;;;;;;16.63;11.60;;;256.50;2252.80;;;;;;5011573;28;20022;-72
2024/03/07 05:11:39;;;;;;;15.18;11.57;;;256.60;2252.80;;;;;;5012043;28;20064;-71
2024/03/07 05:14:05;;;;;;;16.83;12.00;;;256.70;2252.80;;;;;;5011524;28;20105;-73
2024/03/07 05:16:31;;;;;;;18.08;14.50;;;256.90;2252.80;;;;;;5011679;28;20022;-71
2024/03/07 05:19:00;;;;;;;18.45;12.43;;;256.80;2252.80;;;;;;5005065;28;20089;-73
2024/03/07 05:23:58;;;;;;;18.77;12.80;;;256.70;2252.80;;;;;;5012291;28;20109;-76
2024/03/07 05:26:24;;;;;;;13.63;10.55;;;256.50;2252.80;;;;;;5011282;28;20249;-73
2024/03/07 05:28:51;;;;;;;14.27;10.10;;;256.60;2252.80;;;;;;5022334;28;20376;-74
2024/03/07 05:31:18;;;;;;;14.70;11.05;;;256.50;2252.80;;;;;;5011592;28;20026;-74
2024/03/07 05:33:44;;;;;;;17.27;12.20;;;256.60;2252.80;;;;;;5011766;28;20026;-85
2024/03/07 05:36:15;;;;;;;16.15;11.90;;;256.60;2252.80;;;;;;5004432;28;20397;-76
2024/03/07 05:38:45;;;;;;;14.43;11.02;;;256.50;2252.80;;;;;;5011870;28;20361;-82
2024/03/07 05:41:13;;;;;;;11.80;8.75;;;256.60;2252.80;;;;;;5011532;28;20026;-81
2024/03/07 05:43:39;;;;;;;11.43;8.77;;;256.60;2252.80;;;;;;5012279;28;20033;-77
2024/03/07 05:46:10;;;;;;;11.32;9.52;;;256.50;2252.80;;;;;;5011827;28;20076;-84
2024/03/07 05:48:37;;;;;;;12.38;9.48;;;256.60;2252.80;;;;;;5014212;28;20015;-73
2024/03/07 05:51:03;;;;;;;16.00;11.65;;;256.60;2252.80;;;;;;5015170;28;20022;-76
2024/03/07 05:53:29;;;;;;;15.15;12.20;;;256.50;2252.80;;;;;;5012743;28;20563;-78
2024/03/07 05:55:55;;;;;;;16.95;14.20;;;256.60;2252.80;;;;;;5011233;28;20093;-78
2024/03/07 05:58:21;;;;;;;16.60;14.73;;;256.60;2252.80;;;;;;5012570;28;20538;-73
2024/03/07 06:00:50;;;;;;;15.30;13.02;;;256.50;2252.80;;;;;;5010954;28;20022;-77
2024/03/07 06:03:24;;;;;;;16.77;12.10;;;256.60;2252.80;;;;;;5010968;28;20022;-73
2024/03/07 06:05:50;;;;;;;16.40;12.23;;;256.70;2252.80;;;;;;4998306;28;20038;-75
2024/03/07 06:08:17;;;;;;;15.88;11.95;;;256.70;2252.80;;;;;;5010944;28;20034;-73
2024/03/07 06:10:46;;;;;;;18.65;14.73;;;256.80;2252.80;;;;;;4998352;28;20344;-79
2024/03/07 06:13:13;;;;;;;37.33;25.20;;;256.70;2252.80;;;;;;5010991;28;20029;-73
2024/03/07 06:15:39;;;;;;;18.88;14.05;;;256.50;2252.80;;;;;;5010728;28;20021;-75
2024/03/07 06:18:08;;;;;;;25.45;18.42;;;256.70;2252.80;;;;;;5011099;28;20034;-78
2024/03/07 06:20:35;;;;;;;20.73;13.82;;;256.70;2252.80;;;;;;5010611;28;20025;-74
2024/03/07 06:23:04;;;;;;;12.73;10.98;;;256.80;2252.80;;;;;;5011081;28;20137;-75
2024/03/07 06:25:36;;;;;;;14.13;10.70;;;256.80;2252.80;;;;;;5010575;28;20067;-75
2024/03/07 06:28:09;;;;;;;11.88;9.43;;;256.70;2252.80;;;;;;5010751;28;20057;-79
2024/03/07 06:30:43;;;;;;;14.50;10.63;;;256.80;2252.80;;;;;;5010786;28;20049;-72
2024/03/07 06:33:10;;;;;;;36.42;20.33;;;256.80;2252.80;;;;;;5010606;28;20029;-76
2024/03/07 06:35:36;;;;;;;18.75;12.43;;;256.70;2252.80;;;;;;5010622;28;20498;-80
2024/03/07 06:38:06;;;;;;;13.75;11.25;;;256.90;2252.80;;;;;;5010570;28;20032;-84
2024/03/07 06:40:36;;;;;;;72.38;58.08;;;281.60;2278.40;;;;;;5010668;28;20093;-76
2024/03/07 06:43:06;;;;;;;20.88;15.95;;;281.60;2278.40;;;;;;4994226;28;20026;-77
2024/03/07 06:45:33;;;;;;;58.78;39.45;;;281.80;2278.40;;;;;;5010277;28;20013;-76
2024/03/07 06:47:59;;;;;;;15.95;12.02;;;281.80;2278.40;;;;;;5010590;28;20084;-82
2024/03/07 06:50:24;;;;;;;14.07;10.60;;;281.70;2278.40;;;;;;5009968;28;20025;-74
2024/03/07 06:52:50;;;;;;;35.85;28.17;;;281.70;2278.40;;;;;;5010631;28;20036;-78
2024/03/07 06:55:18;;;;;;;88.40;78.85;;;281.60;2278.40;;;;;;5010017;28;20026;-77
2024/03/07 06:57:44;;;;;;;153.68;86.80;;;256.70;2252.80;;;;;;5010347;28;20022;-86
2024/03/07 07:00:18;;;;;;;181.95;111.55;;;281.60;2278.40;;;;;;5010129;28;20026;-78
2024/03/07 07:02:44;;;;;;;26.52;19.63;;;281.70;2278.40;;;;;;5010206;28;20109;-79
2024/03/07 07:05:15;;;;;;;21.23;18.45;;;281.60;2278.40;;;;;;5009908;28;20184;-91
2024/03/07 07:07:44;;;;;;;17.75;15.02;;;256.90;2252.80;;;;;;5009940;28;20484;-82
2024/03/07 07:10:23;;;;;;;14.18;10.88;;;281.60;2278.40;;;;;;5009814;28;20049;-76
2024/03/07 07:12:50;;;;;;;13.93;10.88;;;256.90;2252.80;;;;;;5009606;28;20026;-74
2024/03/07 07:15:20;;;;;;;15.35;12.02;;;256.70;2252.80;;;;;;5009809;28;20022;-76
2024/03/07 07:17:48;;;;;;;14.45;11.27;;;256.80;2252.80;;;;;;5011439;28;20026;-76
2024/03/07 07:20:17;;;;;;;14.00;9.13;;;256.90;2252.80;;;;;;5012331;28;20030;-76
2024/03/07 07:22:47;;;;;;;12.02;9.10;;;256.90;2252.80;;;;;;5015492;28;20040;-78
2024/03/07 07:25:16;;;;;;;12.57;9.63;;;281.60;2278.40;;;;;;5013277;28;20021;-77
2024/03/07 07:27:44;;;;;;;36.45;24.83;;;256.90;2252.80;;;;;;5008136;28;20054;-73
2024/03/07 07:30:11;;;;;;;11.73;8.55;;;281.80;2278.40;;;;;;5007133;28;20040;-71
2024/03/07 07:32:37;;;;;;;11.15;8.85;;;281.80;2278.40;;;;;;5017846;28;20103;-73
2024/03/07 07:35:09;;;;;;;14.15;11.02;;;282.00;2278.40;;;;;;5004257;28;20468;-71
2024/03/07 07:37:40;;;;;;;12.80;9.77;;;281.90;2278.40;;;;;;5008984;28;20026;-71
2024/03/07 07:40:14;;;;;;;16.10;12.68;;;282.00;2278.40;;;;;;5008718;28;20025;-72
2024/03/07 07:42:43;;;;;;;12.95;11.10;;;282.00;2278.40;;;;;;4991110;28;20044;-72
2024/03/07 07:45:13;;;;;;;10.90;7.13;;;282.10;2278.40;;;;;;5009021;28;20025;-72
2024/03/07 07:47:48;;;;;;;39.28;26.30;;;282.10;2278.40;;;;;;5006804;28;20042;-73
2024/03/07 07:50:22;;;;;;;13.98;10.20;;;282.20;2278.40;;;;;;5008745;28;20084;-70
2024/03/07 07:52:49;;;;;;;18.90;11.38;;;282.20;2278.40;;;;;;5016932;28;20053;-70
2024/03/07 07:55:19;;;;;;;14.23;12.73;;;282.30;2278.40;;;;;;5008476;28;20045;-70
2024/03/07 07:57:55;;;;;;;8.82;6.60;;;282.30;2278.40;;;;;;5008118;28;20030;-74
2024/03/07 08:00:23;;;;;;;9.15;6.88;;;282.40;2278.40;;;;;;5006726;28;20416;-73
2024/03/07 08:02:54;;;;;;;12.73;9.13;;;282.40;2278.40;;;;;;5006928;28;20468;-71
2024/03/07 08:05:22;;;;;;;10.98;8.18;;;282.50;2278.40;;;;;;5007959;28;20115;-73
2024/03/07 08:07:49;;;;;;;18.67;12.88;;;307.20;2304.00;;;;;;4991204;28;20041;-70
2024/03/07 08:10:15;;;;;;;8.73;7.30;;;307.20;2304.00;;;;;;5007499;28;20167;-70
2024/03/07 08:12:43;;;;;;;12.07;9.35;;;307.30;2304.00;;;;;;5008689;28;20407;-71
2024/03/07 08:15:13;;;;;;;11.35;8.90;;;307.20;2304.00;;;;;;5000213;28;20091;-70
2024/03/07 08:17:43;;;;;;;13.02;9.48;;;282.50;2278.40;;;;;;5008133;28;20044;-70
2024/03/07 08:20:18;;;;;;;14.85;11.27;;;282.30;2278.40;;;;;;5007991;28;20086;-70
2024/03/07 08:22:44;;;;;;;11.13;7.53;;;282.40;2278.40;;;;;;5007436;28;20539;-74
2024/03/07 08:25:14;;;;;;;13.18;8.20;;;282.40;2278.40;;;;;;5007818;28;20060;-72
2024/03/07 08:27:42;;;;;;;12.48;8.55;;;282.40;2278.40;;;;;;5008041;28;20045;-70
2024/03/07 08:30:14;;;;;;;12.35;8.90;;;282.40;2278.40;;;;;;5008155;28;20018;-72
2024/03/07 08:32:40;;;;;;;11.32;7.57;;;282.30;2278.40;;;;;;5008779;28;20108;-71
2024/03/07 08:35:09;;;;;;;72.47;33.95;;;282.40;2278.40;;;;;;5008432;28;20121;-71
2024/03/07 08:37:42;;;;;;;72.63;33.40;;;282.50;2278.40;;;;;;5008545;28;20026;-72
2024/03/07 08:40:18;;;;;;;;;;;282.50;2278.40;;;;;;5001991;28;20042;-72
2024/03/07 08:42:46;;;;;;;18.42;11.98;;;307.30;2304.00;;;;;;5008335;28;20003;-71
2024/03/07 08:45:16;;;;;;;127.47;61.20;;;307.50;2304.00;;;;;;5008770;28;20026;-71
2024/03/07 08:47:43;;;;;;;9.15;6.47;;;307.60;2304.00;;;;;;5008528;28;20073;-70
2024/03/07 08:50:09;;;;;;;32.05;17.95;;;307.70;2304.00;;;;;;5008474;28;20410;-71
2024/03/07 08:52:36;;;;;;;34.80;17.90;;;307.80;2304.00;;;;;;5008364;28;20026;-71
2024/03/07 08:55:03;;;;;;;17.52;9.93;;;307.80;2304.00;;;;;;5008468;28;20018;-71
2024/03/07 08:57:29;;;;;;;9.43;6.32;;;307.80;2304.00;;;;;;5008592;28;20084;-78
2024/03/07 08:59:55;;;;;;;7.68;5.60;;;307.60;2304.00;;;;;;5008310;28;20476;-73
2024/03/07 09:02:20;;;;;;;10.45;7.53;;;307.60;2304.00;;;;;;5008684;28;20061;-70
2024/03/07 09:04:46;;;;;;;25.92;14.88;;;307.70;2304.00;;;;;;5008499;28;20026;-71
2024/03/07 09:07:14;;;;;;;11.38;8.02;;;307.60;2304.00;;;;;;5008373;28;20056;-74
2024/03/07 09:09:43;;;;;;;10.73;6.63;;;307.60;2304.00;;;;;;5008634;28;20469;-73
2024/03/07 09:12:09;;;;;;;10.32;8.15;;;307.60;2304.00;;;;;;5008352;28;20033;-75
2024/03/07 09:14:35;;;;;;;13.85;8.93;;;307.50;2304.00;;;;;;5008536;28;20025;-73
2024/03/07 09:17:02;;;;;;;32.08;23.23;;;307.40;2304.00;;;;;;5008810;28;20079;-70
2024/03/07 09:19:28;;;;;;;14.25;12.95;;;307.30;2304.00;;;;;;5008360;28;20030;-70
2024/03/07 09:21:54;;;;;;;10.40;8.00;;;307.30;2304.00;;;;;;5008463;28;20058;-70
2024/03/07 09:24:24;;;;;;;12.07;7.95;;;282.50;2278.40;;;;;;5008648;28;20026;-74
2024/03/07 09:26:51;;;;;;;10.43;7.50;;;282.30;2278.40;;;;;;5008224;28;20045;-70
2024/03/07 09:29:18;;;;;;;48.08;26.40;;;281.90;2278.40;;;;;;5008259;28;20014;-69
2024/03/07 09:31:45;;;;;;;74.60;35.83;;;282.10;2278.40;;;;;;5013922;28;20044;-72
2024/03/07 09:34:12;;;;;;;51.47;28.10;;;282.00;2278.40;;;;;;5021799;28;20038;-70
2024/03/07 09:36:41;;;;;;;12.38;8.43;;;281.90;2278.40;;;;;;5011652;28;20029;-72
2024/03/07 09:39:08;;;;;;;5.65;4.25;;;281.70;2278.40;;;;;;4998216;28;20042;-69
2024/03/07 09:41:34;;;;;;;26.50;14.20;;;281.80;2278.40;;;;;;5001783;28;20034;-70
2024/03/07 09:44:01;;;;;;;7.40;6.43;;;281.70;2278.40;;;;;;5004313;28;20527;-70
2024/03/07 09:46:28;;;;;;;25.35;11.52;;;281.60;2278.40;;;;;;5014204;28;20041;-70
2024/03/07 09:48:55;;;;;;;21.70;14.90;;;281.60;2278.40;;;;;;5011139;28;20030;-69
2024/03/07 09:51:21;;;;;;;5.95;3.90;;;281.70;2278.40;;;;;;5011295;28;20438;-70
2024/03/07 09:53:52;;;;;;;4.72;3.47;;;256.80;2252.80;;;;;;5011025;28;20025;-69
2024/03/07 09:56:21;;;;;;;19.23;10.00;;;256.80;2252.80;;;;;;5010871;28;20026;-72
2024/03/07 09:58:56;;;;;;;10.20;6.03;;;256.90;2252.80;;;;;;5010794;28;20025;-70
2024/03/07 10:01:24;;;;;;;12.23;7.05;;;256.80;2252.80;;;;;;5010931;28;20026;-70
2024/03/07 10:03:56;;;;;;;6.22;4.22;;;281.70;2278.40;;;;;;5011023;28;20440;-70
2024/03/07 10:06:22;;;;;;;28.45;16.30;;;256.90;2252.80;;;;;;5011145;28;20376;-70
2024/03/07 10:08:48;;;;;;;11.27;7.05;;;256.80;2252.80;;;;;;5010688;28;20014;-69
2024/03/07 10:11:14;;;;;;;11.32;6.40;;;256.80;2252.80;;;;;;5010432;28;20021;-70
2024/03/07 10:13:40;;;;;;;11.02;7.80;;;256.70;2252.80;;;;;;5010830;28;20026;-72
2024/03/07 10:16:07;;;;;;;29.85;16.98;;;256.70;2252.80;;;;;;5010446;28;20468;-69
2024/03/07 10:18:41;;;;;;;18.02;12.00;;;256.60;2252.80;;;;;;5010468;28;20086;-69
2024/03/07 10:21:07;;;;;;;12.77;10.20;;;256.60;2252.80;;;;;;5010324;28;20026;-69
2024/03/07 10:23:36;;;;;;;18.48;14.88;;;256.70;2252.80;;;;;;5010776;28;20042;-69
2024/03/07 10:26:04;;;;;;;26.88;16.88;;;256.60;2252.80;;;;;;5010109;28;20384;-70
2024/03/07 10:28:31;;;;;;;68.75;39.00;;;256.60;2252.80;;;;;;5010161;28;20076;-69
2024/03/07 10:30:56;;;;;;;26.40;17.02;;;256.50;2252.80;;;;;;5010177;28;20030;-69
2024/03/07 10:33:27;;;;;;;15.13;11.15;;;256.70;2252.80;;;;;;4997434;28;20037;-69
2024/03/07 10:35:53;;;;;;;20.33;11.93;;;256.80;2252.80;;;;;;5010135;28;20022;-70
2024/03/07 10:38:21;;;;;;;26.83;13.65;;;256.80;2252.80;;;;;;5010464;28;20080;-69
2024/03/07 10:40:55;;;;;;;6.93;5.15;;;256.80;2252.80;;;;;;5009702;28;20018;-70
2024/03/07 10:43:21;;;;;;;7.78;5.78;;;256.60;2252.80;;;;;;5010713;28;20021;-71
2024/03/07 10:45:53;;;;;;;13.18;11.05;;;256.50;2252.80;;;;;;5008484;28;20498;-72
2024/03/07 10:48:20;;;;;;;26.13;16.95;;;256.50;2252.80;;;;;;5010006;28;20030;-72
2024/03/07 10:51:05;;;;;;;69.90;36.85;;;256.50;2252.80;;;;;;5009598;28;20037;-75
2024/03/07 10:53:47;;;;;;;9.07;6.75;;;256.50;2252.80;;;;;;5009920;28;20034;-69
2024/03/07 10:56:32;;;;;;;19.63;15.20;;;256.60;2252.80;;;;;;5010095;28;20022;-70
2024/03/07 10:59:19;;;;;;;9.80;8.68;;;256.60;2252.80;;;;;;5009270;28;20022;-70
2024/03/07 11:02:06;;;;;;;25.85;19.02;;;256.60;2252.80;;;;;;5009743;28;20049;-70
2024/03/07 11:04:34;;;;;;;22.95;18.38;;;256.60;2252.80;;;;;;5009540;28;20105;-69
2024/03/07 11:07:00;;;;;;;32.40;21.15;;;256.70;2252.80;;;;;;5009856;28;20113;-70
2024/03/07 11:09:32;;;;;;;9.35;6.53;;;256.60;2252.80;;;;;;5009520;28;20022;-70
2024/03/07 11:12:03;;;;;;;30.15;17.58;;;256.80;2252.80;;;;;;5009253;28;20028;-70
2024/03/07 11:14:31;;;;;;;18.80;12.50;;;256.70;2252.80;;;;;;5009159;28;20566;-70
2024/03/07 11:16:58;;;;;;;9.07;6.80;;;256.60;2252.80;;;;;;5009618;28;20502;-69
2024/03/07 11:19:29;;;;;;;9.52;6.47;;;256.80;2252.80;;;;;;5009341;28;20026;-70
2024/03/07 11:21:56;;;;;;;8.70;6.82;;;256.70;2252.80;;;;;;5009866;28;20431;-70
2024/03/07 11:24:32;;;;;;;8.13;6.45;;;256.70;2252.80;;;;;;5002890;28;20030;-70
2024/03/07 11:26:59;;;;;;;11.90;9.30;;;256.60;2252.80;;;;;;5014601;28;20060;-69
2024/03/07 11:29:46;;;;;;;18.65;16.65;;;256.80;2252.80;;;;;;5016011;28;20025;-69
2024/03/07 11:32:14;;;;;;;21.83;17.73;;;256.80;2252.80;;;;;;5011049;28;20394;-70
2024/03/07 11:34:41;;;;;;;25.88;23.08;;;256.80;2252.80;;;;;;5008830;28;20022;-70
2024/03/07 11:37:17;;;;;;;17.10;13.85;;;256.80;2252.80;;;;;;5009090;28;20026;-70
2024/03/07 11:39:47;;;;;;;8.20;6.72;;;256.80;2252.80;;;;;;5009364;28;20045;-70
2024/03/07 11:42:26;;;;;;;9.00;5.97;;;256.80;2252.80;;;;;;5008996;28;20375;-70
2024/03/07 11:44:56;;;;;;;26.25;18.30;;;256.80;2252.80;;;;;;5009530;28;20025;-72
2024/03/07 11:47:28;;;;;;;10.05;6.82;;;256.70;2252.80;;;;;;5009186;28;20026;-69
2024/03/07 11:49:57;;;;;;;11.10;8.38;;;256.80;2252.80;;;;;;5008966;28;20030;-69
2024/03/07 11:52:24;;;;;;;6.75;4.72;;;256.80;2252.80;;;;;;5008305;28;20120;-71
2024/03/07 11:54:51;;;;;;;7.97;5.65;;;256.80;2252.80;;;;;;5018110;28;20022;-70
2024/03/07 11:57:19;;;;;;;6.20;4.28;;;256.80;2252.80;;;;;;5008526;28;20468;-71
2024/03/07 11:59:47;;;;;;;8.27;6.68;;;256.80;2252.80;;;;;;5009027;28;20018;-70
2024/03/07 12:02:17;;;;;;;15.57;10.65;;;256.80;2252.80;;;;;;5008868;28;20037;-70
2024/03/07 12:04:43;;;;;;;6.75;4.78;;;256.70;2252.80;;;;;;5008564;28;20025;-73
2024/03/07 12:07:12;;;;;;;10.55;6.13;;;256.60;2252.80;;;;;;5008742;28;20045;-73
2024/03/07 12:09:45;;;;;;;9.23;6.00;;;256.50;2252.80;;;;;;5009012;28;20072;-74